Time;durP1;ratioP1;P1;durP2;ratioP2;P2;SDS_P1;SDS_P2;PMS_P1;PMS_P2;Temp;Humidity;BMP_temperature;BMP_pressure;BME280_temperature;BME280_humidity;BME280_pressure;Samples;Min_cycle;Max_cycle;Signal;HPM_P1;HPM_P2
2023/06/16 00:01:36;;;;;;;6.63;6.13;;;;;;;17.35;100.00;94385.63;5117446;28;20231;-67
2023/06/16 00:04:05;;;;;;;6.85;6.25;;;;;;;17.35;100.00;94388.41;5116139;28;20200;-67
2023/06/16 00:06:34;;;;;;;7.03;6.43;;;;;;;17.36;100.00;94393.59;5116162;28;20203;-68
2023/06/16 00:09:02;;;;;;;7.13;6.53;;;;;;;17.34;100.00;94382.06;5115299;28;20188;-67
2023/06/16 00:11:31;;;;;;;7.32;6.72;;;;;;;17.32;100.00;94379.69;5116024;28;20282;-67
2023/06/16 00:13:59;;;;;;;7.07;6.50;;;;;;;17.33;100.00;94380.47;5116347;28;20245;-67
2023/06/16 00:16:27;;;;;;;7.28;6.68;;;;;;;17.35;100.00;94386.41;5116991;28;20191;-68
2023/06/16 00:18:58;;;;;;;7.20;6.60;;;;;;;17.36;100.00;94382.44;5116109;28;20203;-68
2023/06/16 00:21:27;;;;;;;7.25;6.57;;;;;;;17.37;100.00;94383.22;5116633;28;20620;-68
2023/06/16 00:23:57;;;;;;;7.18;6.57;;;;;;;17.37;100.00;94377.66;5115912;28;20594;-68
2023/06/16 00:26:27;;;;;;;6.43;5.93;;;;;;;17.36;100.00;94376.88;5116124;28;20200;-68
2023/06/16 00:28:55;;;;;;;7.32;6.63;;;;;;;17.39;100.00;94378.03;5115473;28;20227;-68
2023/06/16 00:31:25;;;;;;;7.57;6.88;;;;;;;17.39;100.00;94375.22;5116275;28;20233;-68
2023/06/16 00:33:54;;;;;;;7.45;6.75;;;;;;;17.37;100.00;94366.50;5116645;28;20188;-68
2023/06/16 00:36:22;;;;;;;7.25;6.55;;;;;;;17.35;100.00;94378.06;5115513;28;20208;-68
2023/06/16 00:38:50;;;;;;;7.03;6.43;;;;;;;17.35;100.00;94378.06;5116182;28;20195;-68
2023/06/16 00:41:21;;;;;;;6.53;6.03;;;;;;;17.32;100.00;94376.91;5115491;28;20207;-68
2023/06/16 00:43:49;;;;;;;7.50;6.82;;;;;;;17.30;100.00;94379.31;5115411;28;20195;-68
2023/06/16 00:46:27;;;;;;;7.15;6.45;;;;;;;17.28;100.00;94373.38;5115784;28;20215;-67
2023/06/16 00:48:56;;;;;;;8.30;7.47;;;;;;;17.28;100.00;94373.38;5115464;28;20195;-67
2023/06/16 00:51:24;;;;;;;8.43;7.68;;;;;;;17.30;100.00;94367.38;5115202;28;20200;-67
2023/06/16 00:53:52;;;;;;;9.52;8.63;;;;;;;17.31;100.00;94364.16;5115316;28;20203;-68
2023/06/16 00:56:23;;;;;;;10.05;9.25;;;;;;;17.31;100.00;94364.16;5115091;28;20223;-67
2023/06/16 00:58:52;;;;;;;9.50;8.65;;;;;;;17.33;100.00;94361.75;5115168;28;20192;-67
2023/06/16 01:01:19;;;;;;;10.40;9.50;;;;;;;17.34;100.00;94351.41;5114875;28;20204;-67
2023/06/16 01:03:50;;;;;;;11.55;10.35;;;;;;;17.36;100.00;94351.78;5114967;28;20199;-67
2023/06/16 01:06:30;;;;;;;11.60;10.50;;;;;;;17.36;100.00;94348.19;5115271;28;20520;-67
2023/06/16 01:09:03;;;;;;;11.30;10.23;;;;;;;17.36;100.00;94353.75;5115333;28;20207;-67
2023/06/16 01:11:38;;;;;;;12.18;10.98;;;;;;;17.38;100.00;94345.78;5114719;28;20199;-67
2023/06/16 01:14:12;;;;;;;11.48;10.38;;;;;;;17.38;100.00;94343.00;5114849;28;20195;-67
2023/06/16 01:16:41;;;;;;;9.95;8.98;;;;;;;17.39;100.00;94344.56;5115338;28;20194;-67
2023/06/16 01:19:09;;;;;;;8.93;8.23;;;;;;;17.37;100.00;94342.22;5114677;28;20294;-67
2023/06/16 01:21:44;;;;;;;8.80;7.93;;;;;;;17.36;100.00;94337.84;5114709;28;20191;-67
2023/06/16 01:24:16;;;;;;;8.43;7.63;;;;;;;17.35;100.00;94336.25;5114616;28;20203;-67
2023/06/16 01:26:49;;;;;;;8.38;7.68;;;;;;;17.33;100.00;94342.25;5114863;28;20298;-67
2023/06/16 01:29:22;;;;;;;8.45;7.65;;;;;;;17.32;100.00;94331.53;5114478;28;20223;-67
2023/06/16 01:31:52;;;;;;;8.10;7.40;;;;;;;17.31;100.00;94335.50;5114695;28;20199;-67
2023/06/16 01:34:20;;;;;;;9.20;7.68;;;;;;;17.31;100.00;94329.91;5115197;28;20202;-66
2023/06/16 01:36:48;;;;;;;8.80;8.00;;;;;;;17.32;100.00;94323.94;5115355;28;20206;-67
2023/06/16 01:39:17;;;;;;;8.43;7.72;;;;;;;17.32;100.00;94325.94;5114494;28;20638;-66
2023/06/16 01:41:45;;;;;;;9.80;8.90;;;;;;;17.31;100.00;94324.34;5115001;28;20196;-66
2023/06/16 01:44:16;;;;;;;9.30;8.18;;;;;;;17.33;100.00;94325.53;5114411;28;20206;-66
2023/06/16 01:46:45;;;;;;;9.45;8.65;;;;;;;17.32;100.00;94326.72;5114743;28;20196;-66
2023/06/16 01:49:12;;;;;;;9.30;8.50;;;;;;;17.31;100.00;94327.91;5114460;28;20191;-67
2023/06/16 01:51:40;;;;;;;9.80;8.90;;;;;;;17.30;100.00;94331.13;5115144;28;20191;-66
2023/06/16 01:54:08;;;;;;;9.48;8.60;;;;;;;17.30;100.00;94323.56;5114893;28;20196;-66
2023/06/16 01:56:38;;;;;;;11.75;8.68;;;;;;;17.32;100.00;94325.94;5114236;28;20216;-66
2023/06/16 01:59:04;;;;;;;9.32;8.52;;;;;;;17.32;100.00;94317.59;5114338;28;20204;-66
2023/06/16 02:01:37;;;;;;;8.57;7.88;;;;;;;17.33;100.00;94328.31;5114127;28;20202;-66
2023/06/16 02:04:10;;;;;;;8.43;7.60;;;;;;;17.36;100.00;94320.31;5114571;28;20199;-66
2023/06/16 02:06:43;;;;;;;8.85;8.10;;;;;;;17.36;100.00;94314.72;5114488;28;20265;-67
2023/06/16 02:09:11;;;;;;;9.68;8.88;;;;;;;17.35;100.00;94315.94;5114077;28;20192;-67
2023/06/16 02:11:44;;;;;;;7.93;7.32;;;;;;;17.33;100.00;94325.53;5114289;28;20196;-67
2023/06/16 02:14:12;;;;;;;7.90;7.20;;;;;;;17.33;100.00;94327.53;5114347;28;20199;-68
2023/06/16 02:16:42;;;;;;;8.50;7.80;;;;;;;17.30;100.00;94319.97;5114559;28;20226;-67
2023/06/16 02:19:09;;;;;;;8.13;7.40;;;;;;;17.31;100.00;94327.13;5114418;28;20253;-67
2023/06/16 02:21:40;;;;;;;8.15;7.35;;;;;;;17.30;100.00;94336.72;5114749;28;20215;-67
2023/06/16 02:24:07;;;;;;;8.18;7.47;;;;;;;17.28;100.00;94328.78;5114609;28;20207;-67
2023/06/16 02:26:35;;;;;;;7.25;6.55;;;;;;;17.27;100.00;94331.97;5114867;28;20718;-67
2023/06/16 02:29:05;;;;;;;7.57;6.90;;;;;;;17.28;100.00;94328.78;5114959;28;20235;-67
2023/06/16 02:31:33;;;;;;;7.40;6.80;;;;;;;17.28;100.00;94325.16;5115466;28;20524;-67
2023/06/16 02:34:02;;;;;;;7.85;7.20;;;;;;;17.28;100.00;94327.97;5118062;28;20184;-68
2023/06/16 02:36:30;;;;;;;8.00;7.30;;;;;;;17.27;100.00;94329.16;5118569;28;20212;-68
2023/06/16 02:38:58;;;;;;;7.35;6.75;;;;;;;17.26;100.00;94322.81;5118377;28;20204;-68
2023/06/16 02:41:28;;;;;;;8.15;7.50;;;;;;;17.27;100.00;94329.16;5118013;28;20196;-68
2023/06/16 02:43:55;;;;;;;9.65;7.47;;;;;;;17.27;100.00;94329.16;5117806;28;20257;-68
2023/06/16 02:46:23;;;;;;;8.73;7.93;;;;;;;17.27;100.00;94327.16;5117586;28;20647;-68
2023/06/16 02:48:51;;;;;;;8.43;7.63;;;;;;;17.26;100.00;94328.38;5118028;28;20200;-68
2023/06/16 02:51:19;;;;;;;8.27;7.57;;;;;;;17.26;100.00;94322.81;5117767;28;20206;-68
2023/06/16 02:53:47;;;;;;;8.90;7.93;;;;;;;17.29;100.00;94326.78;5117853;28;20195;-67
2023/06/16 02:56:15;;;;;;;8.23;7.43;;;;;;;17.29;100.00;94321.19;5117521;28;20226;-68
2023/06/16 02:58:43;;;;;;;8.23;7.43;;;;;;;17.29;100.00;94321.97;5117504;28;20200;-67
2023/06/16 03:01:11;;;;;;;7.90;7.20;;;;;;;17.30;100.00;94315.19;5117493;28;20192;-66
2023/06/16 03:03:48;;;;;;;9.10;8.25;;;;;;;17.31;100.00;94319.56;5117436;28;20207;-65
2023/06/16 03:06:16;;;;;;;9.00;8.18;;;;;;;17.30;100.00;94317.97;5117402;28;20294;-65
2023/06/16 03:08:44;;;;;;;9.43;8.63;;;;;;;17.29;100.00;94313.63;5118255;28;20199;-66
2023/06/16 03:11:11;;;;;;;9.15;8.35;;;;;;;17.28;100.00;94320.41;5117086;28;20204;-65
2023/06/16 03:13:39;;;;;;;8.50;7.80;;;;;;;17.30;100.00;94314.41;5117606;28;20196;-66
2023/06/16 03:16:07;;;;;;;9.30;8.40;;;;;;;17.30;100.00;94317.19;5118128;28;20208;-65
2023/06/16 03:18:34;;;;;;;8.90;8.10;;;;;;;17.32;100.00;94317.59;5116957;28;20195;-65
2023/06/16 03:21:04;;;;;;;8.32;7.63;;;;;;;17.31;100.00;94316.00;5117320;28;20200;-65
2023/06/16 03:23:31;;;;;;;9.35;8.45;;;;;;;17.30;100.00;94315.19;5116941;28;20196;-65
2023/06/16 03:25:58;;;;;;;8.82;7.93;;;;;;;17.27;100.00;94312.44;5118011;28;20199;-65
2023/06/16 03:28:28;;;;;;;8.10;7.40;;;;;;;17.20;100.00;94315.31;5116545;28;20289;-65
2023/06/16 03:30:56;;;;;;;8.77;7.97;;;;;;;17.18;100.00;94315.75;5116809;28;20207;-65
2023/06/16 03:33:24;;;;;;;9.70;8.82;;;;;;;17.18;100.00;94314.94;5116905;28;20261;-65
2023/06/16 03:35:52;;;;;;;10.50;9.50;;;;;;;17.19;100.00;94305.38;5118056;28;20265;-67
2023/06/16 03:38:24;;;;;;;9.77;8.88;;;;;;;17.19;100.00;94310.94;5117280;28;20196;-65
2023/06/16 03:40:52;;;;;;;10.45;9.45;;;;;;;17.17;100.00;94305.78;5116476;28;20197;-65
2023/06/16 03:43:19;;;;;;;18.52;16.73;;;;;;;17.17;100.00;94297.41;5116466;28;20600;-65
2023/06/16 03:45:47;;;;;;;55.30;49.95;;;;;;;17.21;100.00;94294.59;5117785;28;20198;-65
2023/06/16 03:48:14;;;;;;;99.50;90.32;;;;;;;17.22;100.00;94296.19;5116659;28;20204;-65
2023/06/16 03:50:42;;;;;;;90.75;82.47;;;;;;;17.21;100.00;94292.63;5117609;28;20191;-65
2023/06/16 03:53:09;;;;;;;75.55;68.38;;;;;;;17.22;100.00;94290.63;5116380;28;20195;-65
2023/06/16 03:55:38;;;;;;;85.07;77.05;;;;;;;17.23;100.00;94294.97;5116722;28;20215;-65
2023/06/16 03:58:07;;;;;;;76.25;69.18;;;;;;;17.23;100.00;94290.19;5116530;28;20199;-65
2023/06/16 04:00:35;;;;;;;52.38;47.40;;;;;;;17.25;100.00;94287.00;5116570;28;20282;-65
2023/06/16 04:03:04;;;;;;;39.58;35.85;;;;;;;17.26;100.00;94286.59;5116024;28;20202;-65
2023/06/16 04:05:32;;;;;;;25.10;22.85;;;;;;;17.28;100.00;94284.19;5116335;28;20269;-65
2023/06/16 04:08:00;;;;;;;21.45;19.35;;;;;;;17.28;100.00;94289.75;5116177;28;20195;-65
2023/06/16 04:10:29;;;;;;;17.05;15.50;;;;;;;17.28;100.00;94283.38;5115866;28;20642;-69
2023/06/16 04:12:58;;;;;;;11.52;10.43;;;;;;;17.25;100.00;94284.22;5116399;28;20187;-65
2023/06/16 04:15:26;;;;;;;11.38;10.35;;;;;;;17.25;100.00;94281.44;5116037;28;20192;-66
2023/06/16 04:17:55;;;;;;;10.48;9.48;;;;;;;17.26;100.00;94283.00;5116601;28;20203;-66
2023/06/16 04:20:22;;;;;;;10.93;9.82;;;;;;;17.27;100.00;94287.38;5116005;28;20199;-66
2023/06/16 04:22:51;;;;;;;15.48;10.23;;;;;;;17.27;100.00;94287.38;5115899;28;20200;-65
2023/06/16 04:25:21;;;;;;;11.73;9.98;;;;;;;17.27;100.00;94284.59;5115567;28;20207;-66
2023/06/16 04:27:50;;;;;;;24.98;12.27;;;;;;;17.27;100.00;94290.16;5116138;28;20247;-66
2023/06/16 04:30:24;;;;;;;11.50;10.40;;;;;;;17.28;100.00;94292.53;5116193;28;20210;-66
2023/06/16 04:32:54;;;;;;;12.70;11.50;;;;;;;17.32;100.00;94282.16;5115667;28;20203;-66
2023/06/16 04:35:23;;;;;;;12.75;11.55;;;;;;;17.33;100.00;94286.50;5115588;28;20199;-66
2023/06/16 04:37:51;;;;;;;11.98;10.77;;;;;;;17.36;100.00;94281.28;5115907;28;20554;-66
2023/06/16 04:40:19;;;;;;;12.40;11.10;;;;;;;17.38;100.00;94290.81;5115760;28;20206;-66
2023/06/16 04:42:49;;;;;;;13.43;12.13;;;;;;;17.40;100.00;94282.84;5115880;28;20195;-66
2023/06/16 04:45:20;;;;;;;15.52;12.45;;;;;;;17.41;100.00;94281.63;5115789;28;20230;-66
2023/06/16 04:47:50;;;;;;;14.30;12.82;;;;;;;17.41;100.00;94278.84;5115445;28;20561;-66
2023/06/16 04:50:17;;;;;;;12.82;11.60;;;;;;;17.42;100.00;94276.84;5115603;28;20225;-66
2023/06/16 04:52:45;;;;;;;15.88;11.05;;;;;;;17.36;100.00;94289.66;5115846;28;20192;-67
2023/06/16 04:55:12;;;;;;;12.23;10.15;;;;;;;17.36;100.00;94286.84;5114743;28;20553;-66
2023/06/16 04:57:43;;;;;;;11.45;10.30;;;;;;;17.36;100.00;94284.06;5115222;28;20212;-67
2023/06/16 05:00:12;;;;;;;12.50;10.45;;;;;;;17.35;100.00;94285.28;5115544;28;20222;-66
2023/06/16 05:02:41;;;;;;;12.25;10.02;;;;;;;17.30;100.00;94290.13;5115219;28;20191;-66
2023/06/16 05:05:08;;;;;;;10.40;9.40;;;;;;;17.29;100.00;94291.34;5115138;28;20295;-66
2023/06/16 05:07:36;;;;;;;10.02;8.82;;;;;;;17.28;100.00;94289.75;5115883;28;20611;-67
2023/06/16 05:10:05;;;;;;;9.43;8.57;;;;;;;17.28;100.00;94298.13;5114988;28;20207;-66
2023/06/16 05:12:33;;;;;;;10.13;9.23;;;;;;;17.27;100.00;94293.72;5115409;28;20203;-66
2023/06/16 05:15:00;;;;;;;11.80;9.48;;;;;;;17.29;100.00;94293.34;5114901;28;20211;-66
2023/06/16 05:17:28;;;;;;;10.25;9.30;;;;;;;17.31;100.00;94296.47;5114588;28;20219;-66
2023/06/16 05:19:57;;;;;;;10.02;9.18;;;;;;;17.32;100.00;94295.28;5115319;28;20206;-66
2023/06/16 05:22:28;;;;;;;10.00;8.95;;;;;;;17.32;100.00;94293.28;5115250;28;20188;-66
2023/06/16 05:24:57;;;;;;;9.95;9.05;;;;;;;17.31;100.00;94294.47;5114774;28;20533;-66
2023/06/16 05:27:28;;;;;;;9.68;8.93;;;;;;;17.29;100.00;94294.13;5114394;28;20239;-66
2023/06/16 05:29:56;;;;;;;10.40;9.35;;;;;;;17.30;100.00;94286.53;5114721;28;20199;-66
2023/06/16 05:32:24;;;;;;;10.02;9.13;;;;;;;17.31;100.00;94297.25;5114654;28;20206;-66
2023/06/16 05:34:53;;;;;;;10.52;9.55;;;;;;;17.30;100.00;94295.69;5114969;28;20653;-65
2023/06/16 05:37:22;;;;;;;10.68;9.55;;;;;;;17.31;100.00;94291.69;5114758;28;20223;-65
2023/06/16 05:39:51;;;;;;;9.57;8.68;;;;;;;17.40;100.00;94290.44;5114658;28;20192;-65
2023/06/16 05:42:19;;;;;;;10.18;9.20;;;;;;;17.46;100.00;94291.53;5115178;28;20196;-66
2023/06/16 05:44:48;;;;;;;9.57;8.77;;;;;;;17.48;100.00;94292.69;5114371;28;20191;-66
2023/06/16 05:47:14;;;;;;;10.30;9.50;;;;;;;17.52;100.00;94295.44;5114579;28;20210;-66
2023/06/16 05:49:42;;;;;;;10.88;9.77;;;;;;;17.54;100.00;94298.63;5115132;28;20210;-66
2023/06/16 05:52:10;;;;;;;11.10;10.10;;;;;;;17.55;100.00;94291.84;5115080;28;20562;-66
2023/06/16 05:54:40;;;;;;;10.50;9.70;;;;;;;17.55;100.00;94298.19;5114306;28;20620;-66
2023/06/16 05:57:07;;;;;;;10.50;9.57;;;;;;;17.55;100.00;94294.63;5114335;28;20220;-66
2023/06/16 05:59:36;;;;;;;9.80;8.90;;;;;;;17.56;100.00;94304.56;5114248;28;20195;-66
2023/06/16 06:02:04;;;;;;;10.80;9.80;;;;;;;17.56;100.00;94304.56;5114784;28;20210;-66
2023/06/16 06:04:33;;;;;;;10.80;9.85;;;;;;;17.56;100.00;94301.78;5115056;28;20188;-66
2023/06/16 06:07:02;;;;;;;11.23;10.23;;;;;;;17.58;100.00;94298.59;5118388;28;20200;-66
2023/06/16 06:09:30;;;;;;;9.88;9.07;;;;;;;17.60;100.00;94305.31;5118535;28;20202;-66
2023/06/16 06:12:00;;;;;;;10.48;9.68;;;;;;;17.63;100.00;94303.69;5118752;28;20206;-66
2023/06/16 06:14:28;;;;;;;9.90;9.07;;;;;;;17.66;100.00;94306.44;5118855;28;20204;-66
2023/06/16 06:16:56;;;;;;;10.57;9.77;;;;;;;17.70;100.00;94311.97;5118450;28;20219;-66
2023/06/16 06:19:24;;;;;;;9.70;8.90;;;;;;;17.73;100.00;94311.13;5118232;28;20192;-66
2023/06/16 06:21:51;;;;;;;10.13;9.23;;;;;;;17.73;100.00;94300.78;5117996;28;20203;-66
2023/06/16 06:24:20;;;;;;;9.88;8.90;;;;;;;17.77;100.00;94306.34;5118237;28;20214;-66
2023/06/16 06:26:48;;;;;;;10.13;9.23;;;;;;;17.78;100.00;94305.91;5118110;28;20229;-66
2023/06/16 06:29:16;;;;;;;9.75;8.88;;;;;;;17.86;100.00;94295.44;5117620;28;20239;-67
2023/06/16 06:31:44;;;;;;;10.18;9.27;;;;;;;17.89;100.00;94300.19;5118033;28;20207;-66
2023/06/16 06:34:12;;;;;;;10.20;9.30;;;;;;;17.92;100.00;94299.34;5118253;28;20203;-66
2023/06/16 06:36:41;;;;;;;10.93;9.90;;;;;;;17.95;100.00;94297.72;5118209;28;20226;-66
2023/06/16 06:39:08;;;;;;;10.48;9.60;;;;;;;17.98;100.00;94299.69;5118119;28;20188;-66
2023/06/16 06:41:36;;;;;;;10.45;9.45;;;;;;;18.00;100.00;94294.47;5117844;28;20192;-66
2023/06/16 06:44:03;;;;;;;11.38;10.38;;;;;;;18.03;100.00;94288.84;5118397;28;20200;-66
2023/06/16 06:46:33;;;;;;;10.25;9.35;;;;;;;18.10;100.00;94295.53;5118811;28;20180;-66
2023/06/16 06:49:01;;;;;;;10.48;9.57;;;;;;;18.14;100.00;94287.91;5117574;28;20203;-66
2023/06/16 06:51:29;;;;;;;10.02;9.23;;;;;;;18.17;100.00;94285.06;5118320;28;20279;-66
2023/06/16 06:53:57;;;;;;;10.02;9.02;;;;;;;18.20;100.00;94283.44;5117504;28;20195;-66
2023/06/16 06:56:25;;;;;;;10.25;9.38;;;;;;;18.22;100.00;94278.22;5117183;28;20242;-66
2023/06/16 06:58:53;;;;;;;11.20;10.30;;;;;;;18.24;100.00;94286.97;5117497;28;20192;-66
2023/06/16 07:01:20;;;;;;;10.93;9.90;;;;;;;18.26;100.00;94281.72;5117288;28;20195;-66
2023/06/16 07:03:49;;;;;;;10.27;9.27;;;;;;;18.29;100.00;94280.91;5118068;28;20207;-66
2023/06/16 07:06:17;;;;;;;9.07;8.18;;;;;;;18.35;100.00;94278.44;5117773;28;20203;-66
2023/06/16 07:08:44;;;;;;;9.20;8.40;;;;;;;18.43;100.00;94286.25;5118414;28;20240;-66
2023/06/16 07:11:11;;;;;;;9.20;8.40;;;;;;;18.48;99.29;94282.19;5118052;28;20203;-66
2023/06/16 07:13:39;;;;;;;9.25;8.25;;;;;;;18.51;98.46;94278.56;5117385;28;20199;-66
2023/06/16 07:16:07;;;;;;;9.20;8.25;;;;;;;18.54;97.89;94283.31;5117705;28;20203;-66
2023/06/16 07:18:36;;;;;;;8.25;7.55;;;;;;;18.53;97.39;94285.31;5116332;28;20203;-66
2023/06/16 07:21:07;;;;;;;8.70;7.90;;;;;;;18.55;97.17;94284.09;5116828;28;20288;-66
2023/06/16 07:23:34;;;;;;;8.48;7.53;;;;;;;18.54;96.96;94283.31;5116798;28;20196;-66
2023/06/16 07:26:02;;;;;;;8.77;7.97;;;;;;;18.52;96.41;94288.53;5116768;28;20208;-66
2023/06/16 07:28:30;;;;;;;9.27;8.38;;;;;;;18.52;96.40;94289.31;5116842;28;20231;-66
2023/06/16 07:30:59;;;;;;;9.35;8.35;;;;;;;18.52;97.13;94289.31;5116872;28;20207;-66
2023/06/16 07:33:26;;;;;;;9.82;8.77;;;;;;;18.54;97.13;94297.25;5116806;28;20203;-66
2023/06/16 07:35:54;;;;;;;10.50;9.60;;;;;;;18.57;97.10;94290.84;5117525;28;20187;-66
2023/06/16 07:38:25;;;;;;;10.02;9.02;;;;;;;18.60;97.32;94292.78;5117191;28;20216;-66
2023/06/16 07:40:53;;;;;;;9.90;8.85;;;;;;;18.63;97.22;94288.38;5116889;28;20192;-66
2023/06/16 07:43:24;;;;;;;10.52;9.40;;;;;;;18.64;95.17;94303.91;5116667;28;20623;-66
2023/06/16 07:45:53;;;;;;;10.00;8.95;;;;;;;18.61;94.35;94308.31;5116767;28;20203;-66
2023/06/16 07:48:19;;;;;;;10.32;9.43;;;;;;;18.61;93.02;94304.75;5117135;28;20195;-66
2023/06/16 07:50:47;;;;;;;11.02;9.93;;;;;;;18.62;93.57;94293.13;5116379;28;20203;-66
2023/06/16 07:53:14;;;;;;;11.52;10.43;;;;;;;18.65;93.23;94306.25;5116455;28;20227;-66
2023/06/16 07:55:43;;;;;;;10.95;9.95;;;;;;;18.68;94.71;94294.25;5117459;28;20356;-66
2023/06/16 07:58:11;;;;;;;12.20;9.82;;;;;;;18.69;92.17;94306.22;5116372;28;20223;-66
2023/06/16 08:00:39;;;;;;;11.40;10.27;;;;;;;18.69;92.46;94295.81;5116698;28;20199;-66
2023/06/16 08:03:06;;;;;;;12.45;11.25;;;;;;;18.70;92.42;94297.41;5116175;28;20188;-66
2023/06/16 08:05:34;;;;;;;13.18;11.98;;;;;;;18.72;92.85;94297.00;5116254;28;20192;-66
2023/06/16 08:08:02;;;;;;;11.95;10.85;;;;;;;18.70;92.23;94305.78;5116157;28;20219;-66
2023/06/16 08:10:29;;;;;;;10.95;9.85;;;;;;;18.71;92.42;94299.03;5116468;28;20213;-66
2023/06/16 08:12:58;;;;;;;11.15;10.15;;;;;;;18.66;89.99;94304.25;5115796;28;20203;-66
2023/06/16 08:15:29;;;;;;;11.00;10.00;;;;;;;18.62;89.64;94309.09;5115640;28;20203;-70
2023/06/16 08:17:57;;;;;;;11.77;10.15;;;;;;;18.59;89.10;94299.59;5116602;28;20214;-67
2023/06/16 08:20:26;;;;;;;11.70;10.50;;;;;;;18.60;89.14;94305.97;5115743;28;20202;-67
2023/06/16 08:22:53;;;;;;;12.00;10.80;;;;;;;18.61;89.31;94301.94;5115731;28;20195;-67
2023/06/16 08:25:21;;;;;;;12.82;11.52;;;;;;;18.60;89.33;94303.97;5115890;28;20196;-67
2023/06/16 08:27:50;;;;;;;11.50;10.43;;;;;;;18.61;88.50;94310.34;5115512;28;20254;-67
2023/06/16 08:30:19;;;;;;;12.60;11.32;;;;;;;18.61;87.72;94313.91;5115190;28;20278;-67
2023/06/16 08:32:47;;;;;;;11.75;10.68;;;;;;;18.64;88.61;94310.28;5115929;28;20199;-67
2023/06/16 08:35:16;;;;;;;13.38;12.05;;;;;;;18.65;88.37;94313.84;5115377;28;20203;-67
2023/06/16 08:37:45;;;;;;;13.25;11.77;;;;;;;18.68;88.05;94313.00;5117023;28;20207;-67
2023/06/16 08:40:13;;;;;;;13.30;12.00;;;;;;;18.67;87.16;94312.22;5115763;28;20210;-67
2023/06/16 08:42:41;;;;;;;13.77;12.43;;;;;;;18.69;87.57;94311.78;5115346;28;20196;-67
2023/06/16 08:45:09;;;;;;;12.98;11.77;;;;;;;18.71;87.45;94309.41;5115574;28;20202;-67
2023/06/16 08:47:39;;;;;;;14.15;12.73;;;;;;;18.75;87.75;94308.13;5115387;28;20200;-67
2023/06/16 08:50:08;;;;;;;13.20;11.88;;;;;;;18.80;87.22;94306.06;5115085;28;20210;-67
2023/06/16 08:52:36;;;;;;;13.15;11.95;;;;;;;18.85;86.79;94303.59;5115277;28;20192;-67
2023/06/16 08:55:05;;;;;;;13.82;12.52;;;;;;;18.90;86.09;94302.31;5115287;28;20195;-67
2023/06/16 08:57:36;;;;;;;13.77;12.48;;;;;;;18.97;86.62;94302.19;5114916;28;20215;-66
2023/06/16 09:00:08;;;;;;;14.32;13.00;;;;;;;19.05;86.78;94305.63;5115309;28;20191;-66
2023/06/16 09:02:36;;;;;;;14.57;13.07;;;;;;;19.16;88.26;94303.44;5115802;28;20202;-67
2023/06/16 09:05:09;;;;;;;13.30;12.10;;;;;;;19.17;83.92;94305.81;5116153;28;20183;-67
2023/06/16 09:07:39;;;;;;;14.38;12.98;;;;;;;19.22;84.60;94298.94;5115544;28;20207;-67
2023/06/16 09:10:08;;;;;;;13.35;11.82;;;;;;;19.27;84.22;94294.84;5114786;28;20627;-66
2023/06/16 09:12:37;;;;;;;13.68;12.32;;;;;;;19.28;82.96;94304.81;5115387;28;20206;-67
2023/06/16 09:15:09;;;;;;;14.20;12.85;;;;;;;19.28;82.87;94304.81;5115151;28;20634;-67
2023/06/16 09:17:37;;;;;;;12.50;11.30;;;;;;;19.29;82.38;94303.63;5115042;28;20284;-67
2023/06/16 09:20:17;;;;;;;13.48;12.20;;;;;;;19.30;82.36;94305.19;5115150;28;20216;-67
2023/06/16 09:22:49;;;;;;;13.27;11.93;;;;;;;19.29;82.31;94303.63;5115169;28;20180;-67
2023/06/16 09:25:16;;;;;;;13.95;12.63;;;;;;;19.29;82.84;94301.63;5114770;28;20199;-67
2023/06/16 09:27:45;;;;;;;14.48;13.18;;;;;;;19.31;83.88;94301.16;5114586;28;20231;-67
2023/06/16 09:30:14;;;;;;;14.35;12.95;;;;;;;19.35;84.75;94299.88;5114535;28;20577;-67
2023/06/16 09:32:41;;;;;;;15.23;13.77;;;;;;;19.38;85.02;94292.66;5114737;28;20292;-67
2023/06/16 09:35:17;;;;;;;14.55;13.35;;;;;;;19.41;84.77;94303.78;5114698;28;20218;-67
2023/06/16 09:37:46;;;;;;;14.82;13.27;;;;;;;19.48;84.42;94300.84;5114624;28;20661;-66
2023/06/16 09:40:15;;;;;;;13.52;12.32;;;;;;;19.54;84.01;94295.56;5114651;28;20199;-66
2023/06/16 09:42:46;;;;;;;14.00;12.73;;;;;;;19.60;84.03;94290.22;5114997;28;20227;-66
2023/06/16 09:45:13;;;;;;;15.00;13.50;;;;;;;19.59;83.16;94289.44;5114888;28;20207;-66
2023/06/16 09:47:45;;;;;;;14.98;13.55;;;;;;;19.58;84.31;94289.88;5115086;28;20198;-67
2023/06/16 09:50:14;;;;;;;14.75;13.35;;;;;;;19.56;83.86;94284.69;5115064;28;20282;-67
2023/06/16 09:52:44;;;;;;;14.07;12.63;;;;;;;19.57;83.65;94280.72;5114524;28;20199;-67
2023/06/16 09:55:12;;;;;;;14.15;12.75;;;;;;;19.60;83.16;94284.63;5114702;28;20200;-67
2023/06/16 09:57:42;;;;;;;13.85;12.55;;;;;;;19.61;82.63;94289.81;5114747;28;20216;-67
2023/06/16 10:00:15;;;;;;;14.00;12.65;;;;;;;19.59;82.33;94283.06;5114328;28;20206;-67
2023/06/16 10:02:45;;;;;;;14.82;13.55;;;;;;;19.61;83.68;94283.44;5114780;28;20204;-67
2023/06/16 10:05:15;;;;;;;13.57;12.35;;;;;;;19.62;82.99;94277.44;5114593;28;20286;-67
2023/06/16 10:07:49;;;;;;;13.48;12.30;;;;;;;19.64;81.39;94283.38;5114431;28;20654;-67
2023/06/16 10:10:21;;;;;;;14.35;13.05;;;;;;;19.78;83.45;94275.91;5114854;28;20201;-67
2023/06/16 10:12:51;;;;;;;14.18;12.80;;;;;;;19.94;82.86;94271.16;5114669;28;20259;-67
2023/06/16 10:15:21;;;;;;;14.20;13.00;;;;;;;20.23;82.60;94278.16;5113984;28;20199;-67
2023/06/16 10:17:50;;;;;;;13.80;12.60;;;;;;;20.57;81.62;94278.56;5114865;28;20219;-67
2023/06/16 10:20:20;;;;;;;14.00;12.45;;;;;;;20.80;80.97;94276.81;5114239;28;20192;-67
2023/06/16 10:22:50;;;;;;;14.23;12.82;;;;;;;20.98;79.93;94263.13;5114427;28;20211;-67
2023/06/16 10:25:18;;;;;;;13.88;12.63;;;;;;;21.03;78.11;94264.63;5114271;28;20191;-67
2023/06/16 10:27:46;;;;;;;14.57;13.23;;;;;;;20.87;76.78;94254.22;5114303;28;20568;-67
2023/06/16 10:30:16;;;;;;;14.20;12.98;;;;;;;20.68;76.35;94248.28;5113927;28;20202;-67
2023/06/16 10:32:47;;;;;;;13.75;12.45;;;;;;;20.55;76.36;94261.44;5114012;28;20303;-67
2023/06/16 10:35:15;;;;;;;13.88;12.57;;;;;;;20.47;76.58;94264.78;5113865;28;20191;-67
2023/06/16 10:37:41;;;;;;;14.30;12.93;;;;;;;20.37;74.64;94255.41;5114249;28;20231;-67
2023/06/16 10:40:14;;;;;;;13.13;11.93;;;;;;;20.32;75.49;94253.13;5113884;28;20608;-66
2023/06/16 10:42:42;;;;;;;13.18;12.07;;;;;;;20.27;75.72;94251.66;5113814;28;20598;-66
2023/06/16 10:45:26;;;;;;;13.20;11.95;;;;;;;20.24;75.88;94246.91;5113902;28;20215;-66
2023/06/16 10:47:58;;;;;;;13.50;12.30;;;;;;;20.21;74.74;94247.78;5099358;28;20207;-66
2023/06/16 10:50:33;;;;;;;13.75;12.55;;;;;;;20.17;74.62;94233.84;5114434;28;20196;-66
2023/06/16 10:53:10;;;;;;;13.57;12.35;;;;;;;20.16;73.46;94239.91;5116547;28;20183;-67
2023/06/16 10:55:41;;;;;;;12.98;11.88;;;;;;;20.15;73.58;94227.94;5117484;28;20188;-66
2023/06/16 10:58:32;;;;;;;13.57;12.48;;;;;;;20.15;74.29;94233.53;5117326;28;20241;-67
2023/06/16 11:01:26;;;;;;;12.30;11.30;;;;;;;20.16;74.30;94223.91;5111642;28;20657;-66
2023/06/16 11:04:02;;;;;;;12.85;11.75;;;;;;;20.20;75.09;94226.59;5107225;28;20207;-66
2023/06/16 11:07:03;;;;;;;13.88;12.70;;;;;;;20.38;75.05;94223.41;5117604;28;20203;-67
2023/06/16 11:09:33;;;;;;;14.60;13.30;;;;;;;20.60;73.26;94213.25;5117058;28;20191;-67
2023/06/16 11:12:03;;;;;;;13.95;12.65;;;;;;;20.66;72.97;94216.31;5117968;28;20196;-67
2023/06/16 11:14:31;;;;;;;13.13;12.02;;;;;;;20.65;71.40;94212.72;5118082;28;20211;-67
2023/06/16 11:16:57;;;;;;;11.95;11.05;;;;;;;20.64;70.86;94210.38;5117457;28;20202;-67
2023/06/16 11:19:26;;;;;;;13.27;11.85;;;;;;;20.64;71.67;94204.78;5116750;28;20219;-66
2023/06/16 11:21:54;;;;;;;13.82;12.68;;;;;;;20.79;74.43;94205.97;5117221;28;20195;-66
2023/06/16 11:24:25;;;;;;;14.98;12.43;;;;;;;20.98;73.33;94198.66;5116954;28;20196;-67
2023/06/16 11:26:53;;;;;;;12.77;11.68;;;;;;;21.13;73.05;94190.66;5116768;28;20203;-66
2023/06/16 11:29:29;;;;;;;12.68;11.60;;;;;;;21.17;71.10;94196.97;5116426;28;20307;-66